Adrian, Texas
Current Conditions -  °F | °C
As of 5:55 AM on Sunday 23 Nov 2014 (Local Time) from KHRX Reporting Station
Clear Clear  
Wind Chill: 10°   Ceiling: Unl
Heat Index: 10°   Visibility: 10mi
Dew Point: -5°   Wind: 22mph
Humidity: 34%   Direction: 210°SSW
Pressure: 29.53"   Gusts: NA
Location:  35.27°N, 102.67°W
Report Text: KHRX 231155Z AUTO 21019KT 10SM CLR 10/M05 A2953 RMK AO2 T01031051 10120 20090
Loading
Personal Weather Stations






























Interactive Weather Map New forecast layout! Learn more

10-Day Weather Forecast

Advertisements
Track Severe Weather on mobile